Airfield :
LOGIN :

Register | Disclaimer

   EN    FR    IT 

 










Legend :    VFR   Marginal VFR   IFR   Intensive IFR   Very Intensive IFR
Visi :
Ceiling :
>= 8 km
>= 3000ft
5 to 8 km
1000 to 3000 ft
1500m to 5 km
500 to 1000 ft
800 to 1500m
200 to 500 ft
< 800m
< 200 ft
Symbols :   Thunderstorms  Fog  Heavy snow  Heavy precipitations  Wind > 20 kt
SIGMETs :     Misc.  Thunderstorms  Icing  Turbulence  Mountain Waves  Volcanic Ashes







- Airport Elevation : 495 ft
- IATA code : BUD


LHBP - Budapest Ferihegy

CURRENT METAR :
  • 200900Z VRB03KT 0250 R31L/1400U R31R/0700N FZFG BKN002 M00/M00 Q1014 BECMG 0500 FZFG VV003

EXPIRED METARs :
  • 200830Z 18005KT 0250 R31L/0450N R31R/0550N FZFG BKN002 M01/M01 Q1014 TEMPO -SN
  • 200816Z 17004KT 140V210 0300 R31L/0550N R31R/0550N FZFG BKN003 M01/M01 Q1014 NOSIG
  • 200804Z 16004KT 0300 R31L/0750N R31R/0600N FZFG BKN002 M01/M02 Q1014 NOSIG
  • 200746Z 15004KT 120V180 0400 R31L/1200N R31R/0650N FZFG BKN003 M02/M02 Q1014 TEMPO 0300 FZFG VV002
  • 200743Z 16004KT 120V180 0400 R31L/1300D R31R/0700N FZFG SCT002 SCT041 M02/M02 Q1014 TEMPO 0300 FZFG VV002
  • 200730Z VRB03KT 5000 BR FZBCFG FEW002 SCT041 M02/M02 Q1014 TEMPO 1500 PRFG BKN002
  • 200714Z VRB03KT 9999 3000SE FEW002 SCT041 M02/M03 Q1014 TEMPO 3000 BR
  • 200700Z VRB02KT 9999 FEW036 M04/M04 Q1014 NOSIG
  • 200630Z VRB03KT 9999 FZMIFG SCT036 M03/M03 Q1013 NOSIG

TAF AMD TAF LHBP
Valid from the 20 at 07:00 until the 21 at 06:00 UTC


200740Z 2007/2106 VRB03KT 3000 BR SCT025 BKN040
TEMPO 2007/2010 0300 FZFG VV002
BECMG 2010/2012 24005KT 9999 NSW
TEMPO 2012/2016 BKN025
BECMG 2015/2017 14004KT
TEMPO 2020/2104 4000 BR
BECMG 2104/2106 13011KT BKN030
No reported NOTAMs for that airfield.



MET'MAP, your aeronautical weather chart ! - Copyright ORBIFLY December 2007 - Disclaimer

ORBIFLY MET'MAP TEAM :

Programming & Development : Alexandra Zaïnal
Concept & Development : Baudouin d'Aumeries
Co-Development & Prog : Marc-Olivier Méhu
Technical & hardware support : Manuel Goepfert

Contact : metmap@orbifly.com




SOURCES & CREDITS :

   NOAA